Time;durP1;ratioP1;P1;durP2;ratioP2;P2;SDS_P1;SDS_P2;PMS_P1;PMS_P2;Temp;Humidity;BMP_temperature;BMP_pressure;BME280_temperature;BME280_humidity;BME280_pressure;Samples;Min_cycle;Max_cycle;Signal;HPM_P1;HPM_P2
2023/07/25 00:01:15;;;;;;;13.80;4.18;;;;;;;12.65;100.00;100531.75;5032260;28;20423;-78
2023/07/25 00:03:41;;;;;;;16.35;4.82;;;;;;;12.65;100.00;100536.28;5031086;28;20063;-78
2023/07/25 00:06:06;;;;;;;16.15;4.72;;;;;;;12.63;100.00;100532.88;5026216;28;20029;-78
2023/07/25 00:08:32;;;;;;;16.98;5.57;;;;;;;12.62;100.00;100531.16;5031911;28;20022;-78
2023/07/25 00:10:58;;;;;;;17.65;5.07;;;;;;;12.58;100.00;100538.66;5030525;28;20400;-79
2023/07/25 00:13:23;;;;;;;13.95;4.78;;;;;;;12.53;100.00;100528.28;5031762;28;20431;-79
2023/07/25 00:15:50;;;;;;;14.57;5.10;;;;;;;12.53;100.00;100525.59;5030416;28;20508;-78
2023/07/25 00:18:15;;;;;;;18.48;4.93;;;;;;;12.52;100.00;100540.03;5031848;28;20025;-79
2023/07/25 00:20:40;;;;;;;18.30;5.07;;;;;;;12.50;100.00;100539.31;5031771;28;20108;-78
2023/07/25 00:23:06;;;;;;;14.75;4.70;;;;;;;12.48;100.00;100540.44;5026859;28;20060;-79
2023/07/25 00:25:31;;;;;;;15.85;5.13;;;;;;;12.47;100.00;100533.34;5030411;28;20448;-79
2023/07/25 00:27:56;;;;;;;15.25;5.55;;;;;;;12.44;100.00;100534.44;5031723;28;20057;-79
2023/07/25 00:30:22;;;;;;;19.38;5.25;;;;;;;12.40;100.00;100533.00;5030305;28;20060;-79
2023/07/25 00:32:47;;;;;;;15.52;4.75;;;;;;;12.41;100.00;100537.41;5030369;28;20030;-79
2023/07/25 00:35:12;;;;;;;14.25;4.90;;;;;;;12.39;100.00;100525.94;5030523;28;20484;-79
2023/07/25 00:37:38;;;;;;;15.95;5.25;;;;;;;12.36;100.00;100520.81;5030463;28;20030;-78
2023/07/25 00:40:03;;;;;;;17.10;5.07;;;;;;;12.36;100.00;100523.50;5028503;28;20075;-79
2023/07/25 00:42:29;;;;;;;14.85;4.78;;;;;;;12.32;100.00;100524.75;5030219;28;20033;-78
2023/07/25 00:44:54;;;;;;;13.95;4.78;;;;;;;12.33;100.00;100529.13;5030280;28;20498;-78
2023/07/25 00:47:22;;;;;;;17.55;5.15;;;;;;;12.31;100.00;100529.25;5031752;28;20030;-79
2023/07/25 00:49:48;;;;;;;14.77;5.18;;;;;;;12.27;100.00;100527.84;5031473;28;20036;-78
2023/07/25 00:52:15;;;;;;;16.88;5.63;;;;;;;12.27;100.00;100526.97;5034823;28;20083;-78
2023/07/25 00:54:47;;;;;;;12.70;4.25;;;;;;;12.25;100.00;100527.09;5035354;28;20026;-78
2023/07/25 00:57:12;;;;;;;16.55;4.85;;;;;;;12.28;100.00;100523.28;5033566;28;20087;-78
2023/07/25 00:59:37;;;;;;;18.33;5.53;;;;;;;12.30;100.00;100526.69;5035377;28;20025;-79
2023/07/25 01:02:03;;;;;;;20.25;5.55;;;;;;;12.27;100.00;100526.97;5035913;28;20040;-79
2023/07/25 01:04:29;;;;;;;13.13;4.57;;;;;;;12.27;100.00;100522.44;5034036;28;20520;-78
2023/07/25 01:06:56;;;;;;;16.20;4.88;;;;;;;12.29;100.00;100520.47;5034923;28;20038;-79
2023/07/25 01:09:54;;;;;;;18.58;5.95;;;;;;;12.34;100.00;100518.25;5035101;28;20048;-79
2023/07/25 01:12:19;;;;;;;16.45;5.65;;;;;;;12.31;100.00;100513.09;4994232;28;20137;-78
2023/07/25 01:14:44;;;;;;;17.95;6.03;;;;;;;12.35;100.00;100519.09;5033087;28;20072;-79
2023/07/25 01:17:20;;;;;;;14.77;5.13;;;;;;;12.36;100.00;100524.34;5033608;28;20037;-79
2023/07/25 01:19:48;;;;;;;19.83;5.45;;;;;;;12.36;100.00;100518.09;5034860;28;20072;-79
2023/07/25 01:22:14;;;;;;;15.55;5.07;;;;;;;12.30;100.00;100518.59;5033414;28;20030;-79
2023/07/25 01:24:45;;;;;;;15.30;5.47;;;;;;;12.31;100.00;100520.34;5033735;28;20029;-79
2023/07/25 01:27:11;;;;;;;15.48;5.30;;;;;;;12.31;100.00;100517.63;5034714;28;20032;-79
2023/07/25 01:29:37;;;;;;;20.13;6.43;;;;;;;12.28;100.00;100517.91;5034838;28;20025;-79
2023/07/25 01:32:02;;;;;;;20.30;5.60;;;;;;;12.27;100.00;100513.50;5034156;28;20041;-78
2023/07/25 01:34:27;;;;;;;19.65;6.00;;;;;;;12.26;100.00;100511.81;5033283;28;20041;-78
2023/07/25 01:36:53;;;;;;;19.70;5.82;;;;;;;12.22;100.00;100509.34;5033297;28;20443;-79
2023/07/25 01:39:18;;;;;;;18.30;4.95;;;;;;;12.20;100.00;100508.63;5034684;28;20080;-78
2023/07/25 01:41:43;;;;;;;17.00;5.72;;;;;;;12.22;100.00;100508.50;5034509;28;20103;-79
2023/07/25 01:44:09;;;;;;;16.13;5.75;;;;;;;12.19;100.00;100506.06;5034599;28;20380;-78
2023/07/25 01:46:35;;;;;;;14.48;5.63;;;;;;;12.16;100.00;100500.94;5033963;28;20045;-79
2023/07/25 01:49:00;;;;;;;18.15;5.47;;;;;;;12.21;100.00;100498.69;5027877;28;20018;-79
2023/07/25 01:51:26;;;;;;;15.02;4.93;;;;;;;12.17;100.00;100503.50;5034206;28;20028;-79
2023/07/25 01:53:53;;;;;;;13.50;4.65;;;;;;;12.15;100.00;100499.22;5034252;28;20033;-79
2023/07/25 01:56:19;;;;;;;14.23;4.15;;;;;;;12.12;100.00;100496.81;5034220;28;20028;-79
2023/07/25 01:58:45;;;;;;;12.75;4.47;;;;;;;12.09;100.00;100506.00;5032917;28;20029;-79
2023/07/25 02:01:10;;;;;;;15.63;5.15;;;;;;;12.08;100.00;100496.22;5049201;28;20032;-79
2023/07/25 02:03:35;;;;;;;16.50;5.57;;;;;;;12.03;100.00;100491.22;5033941;28;20025;-79
2023/07/25 02:06:01;;;;;;;15.15;4.70;;;;;;;12.04;100.00;100490.22;5031737;28;20040;-79
2023/07/25 02:08:26;;;;;;;15.70;4.88;;;;;;;12.03;100.00;100482.28;5032921;28;20028;-79
2023/07/25 02:10:51;;;;;;;13.15;4.68;;;;;;;12.02;100.00;100478.75;5032614;28;20091;-79
2023/07/25 02:13:17;;;;;;;13.98;5.15;;;;;;;12.00;100.00;100485.25;5032730;28;20025;-79
2023/07/25 02:15:42;;;;;;;12.07;4.55;;;;;;;11.98;100.00;100484.53;5032511;28;20414;-79
2023/07/25 02:18:07;;;;;;;14.48;4.78;;;;;;;11.96;100.00;100497.25;5033910;28;20451;-79
2023/07/25 02:20:33;;;;;;;19.48;4.82;;;;;;;11.95;100.00;100498.22;5033870;28;20362;-79
2023/07/25 02:22:59;;;;;;;16.10;4.65;;;;;;;11.95;100.00;100492.84;5028413;28;20021;-78
2023/07/25 02:25:25;;;;;;;16.00;4.65;;;;;;;11.93;100.00;100498.38;5032172;28;20527;-79
2023/07/25 02:27:51;;;;;;;16.90;5.35;;;;;;;11.93;100.00;100484.91;5032493;28;20029;-79
2023/07/25 02:30:16;;;;;;;14.02;4.68;;;;;;;11.93;100.00;100492.09;5032485;28;20025;-79
2023/07/25 02:32:41;;;;;;;12.73;4.60;;;;;;;11.89;100.00;100486.97;5032238;28;20029;-79
2023/07/25 02:35:07;;;;;;;12.43;4.38;;;;;;;11.87;100.00;100488.97;5032132;28;20504;-79
2023/07/25 02:37:32;;;;;;;11.90;4.68;;;;;;;11.81;100.00;100481.38;5032215;28;20036;-79
2023/07/25 02:39:57;;;;;;;14.00;4.85;;;;;;;11.78;100.00;100481.63;5028013;28;20111;-78
2023/07/25 02:42:23;;;;;;;14.90;5.47;;;;;;;11.77;100.00;100488.03;5033392;28;20480;-79
2023/07/25 02:44:48;;;;;;;14.60;5.13;;;;;;;11.72;100.00;100483.00;5033329;28;20025;-79
2023/07/25 02:47:13;;;;;;;16.42;5.38;;;;;;;11.71;100.00;100486.69;5033410;28;20061;-79
2023/07/25 02:49:38;;;;;;;13.55;4.95;;;;;;;11.72;100.00;100491.09;5033159;28;20362;-79
2023/07/25 02:52:05;;;;;;;14.50;5.13;;;;;;;11.72;100.00;100496.47;5033233;28;20033;-79
2023/07/25 02:54:30;;;;;;;13.13;4.65;;;;;;;11.73;100.00;100494.66;5032050;28;20029;-78
2023/07/25 02:56:55;;;;;;;11.52;4.38;;;;;;;11.71;100.00;100493.91;5025917;28;20065;-79
2023/07/25 02:59:21;;;;;;;13.27;5.10;;;;;;;11.74;100.00;100493.63;5033074;28;20032;-79
2023/07/25 03:01:46;;;;;;;19.65;5.35;;;;;;;11.79;100.00;100491.44;5031756;28;20069;-79
2023/07/25 03:04:11;;;;;;;17.52;5.30;;;;;;;11.81;100.00;100492.16;5031691;28;20485;-79
2023/07/25 03:06:37;;;;;;;17.50;5.50;;;;;;;11.83;100.00;100487.50;5031558;28;20550;-79
2023/07/25 03:09:03;;;;;;;14.70;5.35;;;;;;;11.84;100.00;100489.19;5032925;28;20037;-79
2023/07/25 03:11:28;;;;;;;19.05;6.03;;;;;;;11.87;100.00;100494.34;5031557;28;20025;-79
2023/07/25 03:13:53;;;;;;;17.25;5.18;;;;;;;11.91;100.00;100494.09;5030206;28;20032;-79
2023/07/25 03:16:19;;;;;;;16.70;5.63;;;;;;;11.94;100.00;100489.31;5030445;28;20057;-79
2023/07/25 03:18:44;;;;;;;15.88;5.82;;;;;;;11.97;100.00;100477.44;5034876;28;20032;-78
2023/07/25 03:21:09;;;;;;;16.45;4.85;;;;;;;12.00;100.00;100482.53;5031143;28;20036;-78
2023/07/25 03:23:35;;;;;;;17.63;5.90;;;;;;;12.03;100.00;100490.38;5031497;28;20037;-79
2023/07/25 03:26:00;;;;;;;16.58;5.03;;;;;;;12.04;100.00;100481.31;5031200;28;20044;-79
2023/07/25 03:28:25;;;;;;;16.02;5.32;;;;;;;12.08;100.00;100480.06;5032583;28;20033;-79
2023/07/25 03:30:51;;;;;;;17.92;5.22;;;;;;;12.13;100.00;100476.97;5032539;28;20477;-79
2023/07/25 03:33:16;;;;;;;18.35;5.40;;;;;;;12.16;100.00;100471.31;5025904;28;20029;-79
2023/07/25 03:35:41;;;;;;;21.73;6.00;;;;;;;12.14;100.00;100482.22;5032337;28;20079;-79
2023/07/25 03:38:07;;;;;;;18.50;6.00;;;;;;;12.15;100.00;100481.25;5032772;28;20076;-79
2023/07/25 03:40:32;;;;;;;16.40;5.57;;;;;;;12.20;100.00;100480.84;5030962;28;20427;-79
2023/07/25 03:42:58;;;;;;;20.25;6.20;;;;;;;12.20;100.00;100468.22;5031012;28;20029;-79
2023/07/25 03:45:23;;;;;;;19.08;5.63;;;;;;;12.23;100.00;100469.81;5032317;28;20033;-79
2023/07/25 03:47:48;;;;;;;16.52;5.60;;;;;;;12.23;100.00;100477.88;5032734;28;20025;-79
2023/07/25 03:50:13;;;;;;;16.10;5.38;;;;;;;12.22;100.00;100470.78;5030393;28;20083;-79
2023/07/25 03:52:39;;;;;;;19.55;5.65;;;;;;;12.22;100.00;100466.22;5031143;28;20091;-78
2023/07/25 03:55:05;;;;;;;19.83;6.43;;;;;;;12.23;100.00;100477.88;5032166;28;20026;-79
2023/07/25 03:57:30;;;;;;;16.85;5.57;;;;;;;12.23;100.00;100472.50;5032071;28;20568;-79
2023/07/25 03:59:56;;;;;;;18.92;6.22;;;;;;;12.22;100.00;100487.78;5032103;28;20037;-79
2023/07/25 04:02:21;;;;;;;16.48;6.18;;;;;;;12.19;100.00;100481.81;5032115;28;20032;-79
2023/07/25 04:04:47;;;;;;;18.52;5.30;;;;;;;12.14;100.00;100482.22;5031884;28;20565;-79
2023/07/25 04:07:12;;;;;;;15.63;5.72;;;;;;;12.17;100.00;100483.81;5030153;28;20123;-79
2023/07/25 04:09:37;;;;;;;17.42;6.07;;;;;;;12.19;100.00;100488.06;5032031;28;20365;-79
2023/07/25 04:12:03;;;;;;;21.02;6.60;;;;;;;12.17;100.00;100481.97;5030608;28;20037;-79
2023/07/25 04:14:28;;;;;;;15.38;5.65;;;;;;;12.15;100.00;100485.75;5030579;28;20473;-79
2023/07/25 04:16:54;;;;;;;20.35;6.30;;;;;;;12.14;100.00;100479.53;5031854;28;20109;-79
2023/07/25 04:19:19;;;;;;;17.77;5.43;;;;;;;12.12;100.00;100489.56;5029931;28;20057;-78
2023/07/25 04:21:44;;;;;;;20.13;6.32;;;;;;;12.10;100.00;100477.25;5031812;28;20037;-79
2023/07/25 04:24:10;;;;;;;18.35;6.05;;;;;;;12.07;100.00;100481.03;5029759;28;20136;-78
2023/07/25 04:26:35;;;;;;;17.15;5.57;;;;;;;12.06;100.00;100474.81;5034246;28;20024;-79
2023/07/25 04:29:00;;;;;;;18.25;5.45;;;;;;;12.10;100.00;100482.63;5036114;28;20036;-79
2023/07/25 04:31:26;;;;;;;19.33;5.20;;;;;;;12.07;100.00;100481.88;5034601;28;20382;-79
2023/07/25 04:33:51;;;;;;;16.60;5.63;;;;;;;12.07;100.00;100489.13;5035728;28;20409;-79
2023/07/25 04:36:16;;;;;;;15.40;5.22;;;;;;;12.11;100.00;100481.63;5035652;28;20123;-79
2023/07/25 04:38:42;;;;;;;17.60;5.63;;;;;;;12.13;100.00;100482.38;5034594;28;20079;-79
2023/07/25 04:41:07;;;;;;;17.58;5.90;;;;;;;12.13;100.00;100482.38;5028458;28;20033;-79
2023/07/25 04:43:33;;;;;;;13.95;5.22;;;;;;;12.16;100.00;100482.94;5034368;28;20510;-79
2023/07/25 04:45:58;;;;;;;24.10;5.75;;;;;;;12.17;100.00;100486.50;5035660;28;20550;-79
2023/07/25 04:48:23;;;;;;;17.98;5.60;;;;;;;12.21;100.00;100490.63;5035517;28;20056;-79
2023/07/25 04:50:49;;;;;;;18.92;6.07;;;;;;;12.27;100.00;100479.34;5027125;28;20033;-79
2023/07/25 04:53:14;;;;;;;17.13;5.72;;;;;;;12.32;100.00;100481.63;5034225;28;20370;-79
2023/07/25 04:55:39;;;;;;;19.80;6.15;;;;;;;12.35;100.00;100470.56;5027452;28;20429;-79
2023/07/25 04:58:05;;;;;;;20.90;6.07;;;;;;;12.43;100.00;100473.47;5034207;28;20473;-78
2023/07/25 05:00:30;;;;;;;19.92;5.82;;;;;;;12.47;100.00;100479.44;5035589;28;20025;-79
2023/07/25 05:02:56;;;;;;;20.30;6.75;;;;;;;12.51;100.00;100475.50;5033868;28;20030;-79
2023/07/25 05:05:21;;;;;;;18.15;6.30;;;;;;;12.57;100.00;100469.56;5033987;28;20453;-79
2023/07/25 05:07:46;;;;;;;25.20;7.70;;;;;;;12.62;100.00;100479.91;5032196;28;20378;-79
2023/07/25 05:10:12;;;;;;;21.48;7.50;;;;;;;12.67;100.00;100485.78;5035130;28;20041;-79
2023/07/25 05:12:37;;;;;;;24.85;7.55;;;;;;;12.79;100.00;100483.84;5033790;28;20108;-79
2023/07/25 05:15:03;;;;;;;23.77;7.10;;;;;;;12.81;100.00;100488.13;5035092;28;20140;-79
2023/07/25 05:17:28;;;;;;;20.10;7.45;;;;;;;12.89;100.00;100484.72;5034849;28;20033;-79
2023/07/25 05:19:54;;;;;;;23.15;7.50;;;;;;;12.91;100.00;100488.13;5031655;28;20166;-79
2023/07/25 05:22:19;;;;;;;24.83;7.53;;;;;;;12.95;100.00;100484.19;5034060;28;20116;-79
2023/07/25 05:24:44;;;;;;;23.52;6.22;;;;;;;13.00;100.00;100491.84;5025945;28;20060;-79
2023/07/25 05:27:10;;;;;;;22.02;6.82;;;;;;;13.04;100.00;100488.72;5035140;28;20029;-79
2023/07/25 05:29:35;;;;;;;20.38;6.88;;;;;;;13.09;100.00;100491.06;5033636;28;20025;-79
2023/07/25 05:32:00;;;;;;;23.08;6.60;;;;;;;13.12;100.00;100482.69;5034745;28;20033;-79
2023/07/25 05:34:26;;;;;;;20.13;7.05;;;;;;;13.17;100.00;100496.59;5033027;28;20045;-79
2023/07/25 05:36:51;;;;;;;18.80;6.65;;;;;;;13.20;100.00;100490.06;5032961;28;20061;-79
2023/07/25 05:39:16;;;;;;;16.30;5.70;;;;;;;13.20;100.00;100496.31;5032839;28;20447;-79
2023/07/25 05:41:42;;;;;;;23.17;7.35;;;;;;;13.20;100.00;100499.00;5033858;28;20025;-79
2023/07/25 05:44:08;;;;;;;25.23;5.90;;;;;;;13.20;100.00;100499.00;5033564;28;20087;-79
2023/07/25 05:46:34;;;;;;;19.33;6.07;;;;;;;13.26;100.00;100503.00;5032167;28;20123;-79
2023/07/25 05:48:59;;;;;;;19.48;5.45;;;;;;;13.30;100.00;100509.84;5034535;28;20484;-79
2023/07/25 05:51:25;;;;;;;18.77;5.53;;;;;;;13.36;100.00;100511.16;5033109;28;20041;-79
2023/07/25 05:53:50;;;;;;;16.92;6.20;;;;;;;13.39;100.00;100513.59;5034325;28;20030;-79
2023/07/25 05:56:15;;;;;;;18.23;6.25;;;;;;;13.43;100.00;100512.31;5033074;28;20025;-79
2023/07/25 05:58:41;;;;;;;20.92;5.72;;;;;;;13.48;100.00;100504.63;5032533;28;20033;-79
2023/07/25 06:01:06;;;;;;;17.88;5.60;;;;;;;13.54;100.00;100503.22;5034294;28;20018;-79
2023/07/25 06:03:31;;;;;;;15.27;5.88;;;;;;;13.60;100.00;100506.22;5032867;28;20489;-79
2023/07/25 06:05:57;;;;;;;12.55;4.93;;;;;;;13.63;100.00;100508.66;5032651;28;20079;-79
2023/07/25 06:08:22;;;;;;;16.40;5.70;;;;;;;13.69;100.00;100509.94;5034071;28;20048;-79
2023/07/25 06:10:48;;;;;;;23.70;4.97;;;;;;;13.74;100.00;100504.09;5033969;28;20032;-79
2023/07/25 06:13:13;;;;;;;17.92;4.75;;;;;;;13.74;100.00;100498.69;5033989;28;20034;-79
2023/07/25 06:15:38;;;;;;;15.65;5.88;;;;;;;13.76;100.00;100504.81;5026725;28;20041;-79
2023/07/25 06:18:04;;;;;;;17.40;5.05;;;;;;;13.80;100.00;100498.13;5030881;28;20056;-79
2023/07/25 06:20:32;;;;;;;14.98;4.55;;;;;;;13.83;100.00;100497.84;5034006;28;20033;-79
2023/07/25 06:22:58;;;;;;;20.33;4.93;;;;;;;13.83;100.00;100508.66;5032559;28;20048;-79
2023/07/25 06:25:23;;;;;;;18.00;4.95;;;;;;;13.86;100.00;100516.47;5032384;28;20028;-79
2023/07/25 06:27:49;;;;;;;15.35;4.70;;;;;;;13.95;100.00;100518.31;5032564;28;20030;-79
2023/07/25 06:30:14;;;;;;;14.75;4.75;;;;;;;13.99;100.00;100519.72;5033738;28;20037;-79
2023/07/25 06:32:39;;;;;;;15.13;4.53;;;;;;;14.04;100.00;100521.16;5031605;28;20029;-79
2023/07/25 06:35:05;;;;;;;14.65;4.07;;;;;;;14.10;100.00;100521.44;5032304;28;20480;-79
2023/07/25 06:37:34;;;;;;;17.65;4.55;;;;;;;14.12;100.00;100522.13;5029872;28;20465;-79
2023/07/25 06:40:00;;;;;;;17.92;4.32;;;;;;;14.19;100.00;100518.84;5022229;28;20033;-79
2023/07/25 06:42:28;;;;;;;17.00;4.45;;;;;;;14.25;100.00;100516.44;5033489;28;20029;-79
2023/07/25 06:44:53;;;;;;;15.70;3.85;;;;;;;14.34;100.00;100517.41;5032238;28;20035;-79
2023/07/25 06:47:19;;;;;;;16.17;4.13;;;;;;;14.46;100.00;100515.41;5032158;28;20037;-79
2023/07/25 06:49:44;;;;;;;10.90;3.90;;;;;;;14.53;100.00;100524.63;5032258;28;20029;-79
2023/07/25 06:52:09;;;;;;;17.52;5.25;;;;;;;14.59;100.00;100515.94;5031870;28;20036;-79
2023/07/25 06:54:35;;;;;;;16.38;5.15;;;;;;;14.67;100.00;100516.09;5033210;28;20033;-79
2023/07/25 06:57:00;;;;;;;14.43;4.88;;;;;;;14.78;100.00;100512.34;5029001;28;20044;-79
2023/07/25 06:59:28;;;;;;;15.85;4.45;;;;;;;14.90;100.00;100514.88;5044390;28;20119;-79
2023/07/25 07:01:54;;;;;;;19.30;4.97;;;;;;;14.95;100.00;100508.00;5031765;28;20439;-79
2023/07/25 07:04:19;;;;;;;16.70;4.53;;;;;;;14.98;100.00;100513.13;5033135;28;20033;-79
2023/07/25 07:06:44;;;;;;;17.25;3.97;;;;;;;14.98;100.00;100514.97;5031351;28;20030;-79
2023/07/25 07:09:10;;;;;;;14.15;3.72;;;;;;;15.03;100.00;100521.63;5033101;28;20022;-79
2023/07/25 07:11:35;;;;;;;15.85;4.35;;;;;;;15.13;100.00;100526.16;5031677;28;20056;-79
2023/07/25 07:14:00;;;;;;;19.80;4.68;;;;;;;15.26;100.00;100533.94;5029707;28;20037;-79
2023/07/25 07:16:26;;;;;;;14.40;3.83;;;;;;;15.35;100.00;100530.31;5031274;28;20044;-79
2023/07/25 07:18:51;;;;;;;16.80;4.22;;;;;;;15.37;100.00;100540.00;5030998;28;20167;-79
2023/07/25 07:21:16;;;;;;;15.60;4.35;;;;;;;15.42;100.00;100536.81;5031373;28;20074;-79
2023/07/25 07:23:42;;;;;;;13.15;3.70;;;;;;;15.45;100.00;100538.38;5031595;28;20480;-79
2023/07/25 07:26:07;;;;;;;15.13;4.00;;;;;;;15.43;100.00;100537.66;5031252;28;20533;-79
2023/07/25 07:28:32;;;;;;;17.63;3.63;;;;;;;15.43;100.00;100537.66;5032703;28;20064;-79
2023/07/25 07:30:58;;;;;;;14.00;3.42;;;;;;;15.43;100.00;100534.97;5031312;28;20481;-79
2023/07/25 07:33:24;;;;;;;12.18;3.38;;;;;;;15.43;100.00;100538.50;5031203;28;20136;-79
2023/07/25 07:35:49;;;;;;;15.02;3.53;;;;;;;15.44;100.00;100539.38;5027824;28;20041;-79
2023/07/25 07:38:15;;;;;;;11.77;3.38;;;;;;;15.44;100.00;100536.66;5031276;28;20041;-79
2023/07/25 07:40:40;;;;;;;8.20;3.10;;;;;;;15.41;100.00;100540.53;5032330;28;20416;-79
2023/07/25 07:43:05;;;;;;;11.77;3.17;;;;;;;15.42;100.00;100544.06;5031256;28;20032;-79
2023/07/25 07:45:31;;;;;;;12.10;3.50;;;;;;;15.40;99.61;100546.94;5032226;28;20361;-79
2023/07/25 07:47:56;;;;;;;14.40;3.22;;;;;;;15.40;100.00;100552.34;5030987;28;20033;-79
2023/07/25 07:50:22;;;;;;;13.75;3.22;;;;;;;15.36;96.82;100554.53;5031085;28;20029;-79
2023/07/25 07:52:47;;;;;;;11.20;2.85;;;;;;;15.34;98.01;100561.97;5028585;28;20036;-79
2023/07/25 07:55:14;;;;;;;11.45;2.50;;;;;;;15.31;98.55;100559.53;5032142;28;20049;-79
2023/07/25 07:57:44;;;;;;;6.82;2.53;;;;;;;15.28;98.31;100567.97;5032134;28;20025;-79
2023/07/25 08:00:13;;;;;;;6.75;2.30;;;;;;;15.27;97.75;100560.84;5031885;28;20028;-79
2023/07/25 08:02:38;;;;;;;10.50;2.67;;;;;;;15.30;99.12;100563.25;5032101;28;20029;-79
2023/07/25 08:05:04;;;;;;;14.30;3.38;;;;;;;15.32;99.72;100566.66;5030742;28;20032;-79
2023/07/25 08:07:30;;;;;;;20.13;4.65;;;;;;;15.33;99.74;100567.50;5030675;28;20080;-79
2023/07/25 08:09:56;;;;;;;11.18;3.22;;;;;;;15.37;97.26;100571.63;5023927;28;20037;-79
2023/07/25 08:12:22;;;;;;;10.93;2.55;;;;;;;15.37;92.79;100582.44;5031917;28;20056;-79
2023/07/25 08:14:47;;;;;;;12.48;2.70;;;;;;;15.46;98.31;100572.56;5031856;28;20068;-79
2023/07/25 08:17:13;;;;;;;12.02;2.50;;;;;;;15.49;94.80;100570.44;5029929;28;20488;-79
2023/07/25 08:19:39;;;;;;;13.32;3.15;;;;;;;15.57;96.48;100572.38;5031963;28;20515;-78
2023/07/25 08:22:04;;;;;;;17.88;3.25;;;;;;;15.61;94.38;100578.31;5030404;28;20061;-79
2023/07/25 08:24:29;;;;;;;12.75;3.05;;;;;;;15.66;93.44;100576.03;5032195;28;20112;-79
2023/07/25 08:26:55;;;;;;;9.52;2.70;;;;;;;15.70;91.20;100580.13;5030514;28;20053;-79
2023/07/25 08:29:20;;;;;;;11.82;2.90;;;;;;;15.77;91.63;100577.66;5031682;28;20036;-79
2023/07/25 08:31:45;;;;;;;8.65;2.90;;;;;;;15.83;89.60;100583.34;5030555;28;20108;-79
2023/07/25 08:34:10;;;;;;;15.07;3.38;;;;;;;15.90;89.60;100586.28;5026928;28;20040;-79
2023/07/25 08:36:36;;;;;;;10.38;2.83;;;;;;;15.99;88.57;100588.09;5031748;28;20100;-79
2023/07/25 08:39:01;;;;;;;14.63;3.17;;;;;;;16.12;92.60;100586.84;5031879;28;20044;-79
2023/07/25 08:41:30;;;;;;;11.65;2.78;;;;;;;16.20;89.05;100589.63;5029694;28;20025;-79
2023/07/25 08:44:01;;;;;;;6.07;2.30;;;;;;;16.29;89.29;100596.81;5030378;28;20497;-79
2023/07/25 08:46:27;;;;;;;9.75;2.80;;;;;;;16.39;89.72;100600.31;5031588;28;20543;-79
2023/07/25 08:49:00;;;;;;;8.35;2.65;;;;;;;16.47;85.39;100598.66;5031551;28;20108;-79
2023/07/25 08:51:27;;;;;;;9.75;2.42;;;;;;;16.56;82.41;100600.44;5031607;28;20048;-79
2023/07/25 08:54:05;;;;;;;10.82;2.58;;;;;;;16.63;81.63;100601.50;5031615;28;20037;-79
2023/07/25 08:56:31;;;;;;;13.02;3.53;;;;;;;16.67;83.41;100605.59;5030166;28;20455;-79
2023/07/25 08:58:57;;;;;;;15.98;3.78;;;;;;;16.67;80.92;100616.47;5027456;28;20026;-79
2023/07/25 09:01:24;;;;;;;10.48;2.97;;;;;;;16.67;81.01;100607.47;5031644;28;20034;-79
2023/07/25 09:03:50;;;;;;;8.13;2.80;;;;;;;16.69;84.23;100606.31;5030097;28;20021;-79
2023/07/25 09:06:16;;;;;;;11.98;3.00;;;;;;;16.77;81.52;100606.34;5030131;28;20025;-79
2023/07/25 09:08:41;;;;;;;9.35;2.88;;;;;;;16.89;79.84;100604.25;5031349;28;20493;-79
2023/07/25 09:11:09;;;;;;;9.60;2.95;;;;;;;16.97;75.81;100606.19;5031403;28;20473;-79
2023/07/25 09:13:34;;;;;;;9.95;3.08;;;;;;;17.02;79.97;100611.13;5028611;28;20033;-78
2023/07/25 09:16:00;;;;;;;10.80;2.67;;;;;;;17.07;79.08;100601.50;5040540;28;20049;-78
2023/07/25 09:18:25;;;;;;;12.95;2.80;;;;;;;17.13;80.19;100602.72;5035111;28;20029;-79
2023/07/25 09:20:51;;;;;;;10.48;2.78;;;;;;;17.21;82.65;100601.91;5034162;28;20036;-79
2023/07/25 09:23:21;;;;;;;7.60;2.58;;;;;;;17.23;80.32;100608.00;5034546;28;20076;-79
2023/07/25 09:25:47;;;;;;;10.95;3.10;;;;;;;17.21;78.92;100604.63;5034838;28;20028;-79
2023/07/25 09:28:12;;;;;;;11.25;2.83;;;;;;;17.16;82.35;100612.38;5033509;28;20067;-79
2023/07/25 09:30:47;;;;;;;10.98;2.60;;;;;;;17.10;79.18;100609.31;5034966;28;20056;-79
2023/07/25 09:33:25;;;;;;;7.00;2.65;;;;;;;17.03;81.29;100600.13;5034719;28;20083;-79
2023/07/25 09:35:51;;;;;;;11.73;2.92;;;;;;;16.96;81.05;100601.78;5033430;28;20035;-79
2023/07/25 09:38:16;;;;;;;7.43;2.80;;;;;;;16.88;78.82;100621.56;5033392;28;20038;-79
2023/07/25 09:40:42;;;;;;;9.57;2.50;;;;;;;16.78;82.03;100618.94;5031527;28;20409;-79
2023/07/25 09:43:07;;;;;;;9.13;2.67;;;;;;;16.71;80.90;100615.13;5034699;28;20029;-78
2023/07/25 09:45:36;;;;;;;10.40;2.45;;;;;;;16.69;81.55;100627.16;5033282;28;20025;-79
2023/07/25 09:48:02;;;;;;;8.05;2.60;;;;;;;16.68;79.04;100625.47;5033389;28;20176;-79
2023/07/25 09:50:33;;;;;;;9.20;2.58;;;;;;;16.81;79.04;100625.03;5033439;28;20539;-78
2023/07/25 09:53:01;;;;;;;10.00;2.80;;;;;;;16.93;75.67;100623.81;5033184;28;20116;-78
2023/07/25 09:55:27;;;;;;;12.30;3.20;;;;;;;17.07;76.17;100611.50;5031837;28;20013;-78
2023/07/25 09:57:53;;;;;;;12.65;2.83;;;;;;;17.22;73.20;100622.59;5023697;28;20033;-78
2023/07/25 10:00:18;;;;;;;11.15;3.13;;;;;;;17.26;69.66;100615.84;5028359;28;20172;-78
2023/07/25 10:02:44;;;;;;;8.25;2.50;;;;;;;17.30;73.85;100611.78;5028210;28;20128;-78
2023/07/25 10:05:10;;;;;;;10.00;2.80;;;;;;;17.27;73.25;100615.66;5018747;28;20056;-78
2023/07/25 10:07:37;;;;;;;11.93;2.70;;;;;;;17.25;79.74;100619.59;5033995;28;20029;-78
2023/07/25 10:10:03;;;;;;;8.95;2.78;;;;;;;17.22;76.34;100611.75;5034014;28;20040;-78
2023/07/25 10:12:29;;;;;;;4.88;1.98;;;;;;;17.17;75.84;100611.38;5034055;28;20025;-78
2023/07/25 10:14:55;;;;;;;14.60;2.90;;;;;;;17.24;75.47;100615.16;5033679;28;20025;-78
2023/07/25 10:17:22;;;;;;;5.10;2.50;;;;;;;17.35;76.82;100609.44;5033066;28;20083;-78
2023/07/25 10:19:51;;;;;;;5.55;2.47;;;;;;;17.45;73.41;100612.03;5023350;28;20497;-79
2023/07/25 10:22:17;;;;;;;12.00;2.53;;;;;;;17.53;71.38;100611.22;5032374;28;20079;-78
2023/07/25 10:24:42;;;;;;;10.07;2.55;;;;;;;17.63;74.58;100607.34;5033791;28;20440;-78
2023/07/25 10:27:11;;;;;;;10.65;2.67;;;;;;;17.71;73.72;100614.66;5031651;28;20037;-78
2023/07/25 10:29:49;;;;;;;5.22;2.15;;;;;;;17.84;70.92;100610.63;5033801;28;20029;-78
2023/07/25 10:32:16;;;;;;;8.30;2.20;;;;;;;17.98;71.52;100604.59;5032340;28;20040;-78
2023/07/25 10:34:46;;;;;;;10.15;2.90;;;;;;;18.09;72.82;100601.53;5033639;28;20377;-78
2023/07/25 10:37:25;;;;;;;7.72;2.70;;;;;;;18.16;69.03;100610.72;5033822;28;20036;-78
2023/07/25 10:40:13;;;;;;;7.70;2.37;;;;;;;18.21;73.03;100612.09;5032307;28;20051;-78
2023/07/25 10:42:43;;;;;;;7.13;2.60;;;;;;;18.12;71.95;100613.94;5015667;28;20345;-78
2023/07/25 10:45:27;;;;;;;12.90;3.35;;;;;;;18.04;73.85;100612.06;5031681;28;20093;-78
2023/07/25 10:47:53;;;;;;;10.35;3.13;;;;;;;17.87;73.57;100615.75;5025432;28;20048;-79
2023/07/25 10:50:24;;;;;;;12.25;3.05;;;;;;;17.75;75.94;100618.75;5032056;28;20381;-79
2023/07/25 10:52:49;;;;;;;6.82;2.53;;;;;;;17.66;76.33;100619.75;5025148;28;20104;-78
2023/07/25 10:55:15;;;;;;;10.57;2.92;;;;;;;17.63;71.79;100612.78;5031851;28;20584;-78
2023/07/25 10:57:40;;;;;;;11.63;2.72;;;;;;;17.74;68.73;100616.22;5033226;28;20025;-78
2023/07/25 11:00:08;;;;;;;8.52;2.83;;;;;;;17.92;70.53;100618.84;5032031;28;20032;-78
2023/07/25 11:02:40;;;;;;;9.82;2.45;;;;;;;18.07;69.16;100609.03;5031184;28;20204;-78
2023/07/25 11:05:14;;;;;;;8.88;2.60;;;;;;;18.15;67.41;100609.00;5025576;28;20423;-78
2023/07/25 11:07:45;;;;;;;6.40;2.70;;;;;;;18.22;66.18;100602.91;5031380;28;20030;-78